Time;durP1;ratioP1;P1;durP2;ratioP2;P2;SDS_P1;SDS_P2;PMS_P1;PMS_P2;Temp;Humidity;BMP_temperature;BMP_pressure;BME280_temperature;BME280_humidity;BME280_pressure;Samples;Min_cycle;Max_cycle;Signal;HPM_P1;HPM_P2
2023/04/07 00:01:04;;;;;;;89.20;51.05;;;6.90;99.90;;;;;;4981070;28;20125;-77
2023/04/07 00:03:30;;;;;;;83.28;50.97;;;7.00;99.90;;;;;;4976059;28;20045;-77
2023/04/07 00:05:57;;;;;;;77.45;49.50;;;6.90;99.90;;;;;;4960754;28;20053;-77
2023/04/07 00:08:23;;;;;;;101.95;52.08;;;6.90;99.90;;;;;;4975921;28;20096;-77
2023/04/07 00:10:50;;;;;;;93.63;52.63;;;7.00;99.90;;;;;;4976876;28;20431;-77
2023/04/07 00:13:17;;;;;;;87.75;50.70;;;7.00;99.90;;;;;;4976414;28;20038;-77
2023/04/07 00:15:43;;;;;;;80.07;50.42;;;7.00;99.90;;;;;;4976890;28;20030;-77
2023/04/07 00:18:09;;;;;;;112.80;53.50;;;7.00;99.90;;;;;;4977336;28;20052;-77
2023/04/07 00:20:36;;;;;;;101.72;52.83;;;6.90;99.90;;;;;;4992744;28;20034;-77
2023/04/07 00:23:02;;;;;;;92.90;51.42;;;7.00;99.90;;;;;;4974958;28;20038;-77
2023/04/07 00:25:29;;;;;;;104.35;52.03;;;7.00;99.90;;;;;;4979898;28;20038;-77
2023/04/07 00:27:55;;;;;;;94.68;50.63;;;7.00;99.90;;;;;;4991910;28;20038;-77
2023/04/07 00:30:21;;;;;;;99.38;52.13;;;7.00;99.90;;;;;;4984831;28;20318;-77
2023/04/07 00:32:47;;;;;;;84.45;51.33;;;7.00;99.90;;;;;;4977915;28;20041;-77
2023/04/07 00:35:14;;;;;;;86.10;51.13;;;7.00;99.90;;;;;;4980010;28;20463;-77
2023/04/07 00:37:40;;;;;;;107.25;53.55;;;7.00;99.90;;;;;;4976468;28;20042;-77
2023/04/07 00:40:09;;;;;;;90.55;51.70;;;7.00;99.90;;;;;;4976408;28;20034;-77
2023/04/07 00:42:36;;;;;;;78.97;50.15;;;7.00;99.90;;;;;;4976475;28;20038;-77
2023/04/07 00:45:02;;;;;;;91.60;52.47;;;7.00;99.90;;;;;;4976196;28;20045;-77
2023/04/07 00:47:28;;;;;;;95.60;52.22;;;7.00;99.90;;;;;;4976458;28;20034;-77
2023/04/07 00:49:55;;;;;;;102.05;52.15;;;7.00;99.90;;;;;;4969513;28;20045;-77
2023/04/07 00:52:27;;;;;;;74.35;50.90;;;7.00;99.90;;;;;;4976724;28;20034;-77
2023/04/07 00:54:58;;;;;;;91.93;51.63;;;7.00;99.90;;;;;;4989859;28;20047;-77
2023/04/07 00:57:24;;;;;;;92.68;51.78;;;7.10;99.90;;;;;;4973249;28;20117;-77
2023/04/07 00:59:51;;;;;;;76.00;49.40;;;7.00;99.90;;;;;;4978005;28;20412;-77
2023/04/07 01:02:20;;;;;;;92.18;51.90;;;7.00;99.90;;;;;;4979439;28;20030;-77
2023/04/07 01:05:13;;;;;;;107.90;52.50;;;7.10;99.90;;;;;;4967345;28;20146;-77
2023/04/07 01:08:10;;;;;;;88.18;50.38;;;7.00;99.90;;;;;;4962386;28;20054;-77
2023/04/07 01:10:46;;;;;;;112.68;54.08;;;7.00;99.90;;;;;;4982635;28;20463;-77
2023/04/07 01:13:27;;;;;;;89.35;50.88;;;7.10;99.90;;;;;;4982809;28;20122;-77
2023/04/07 01:15:57;;;;;;;94.35;52.85;;;7.00;99.90;;;;;;4982336;28;20105;-78
2023/04/07 01:18:33;;;;;;;109.70;54.50;;;7.10;99.90;;;;;;4976059;28;20042;-78
2023/04/07 01:21:12;;;;;;;95.20;52.05;;;7.10;99.90;;;;;;4975614;28;20038;-77
2023/04/07 01:24:13;;;;;;;102.30;53.35;;;7.10;99.90;;;;;;4963367;28;20038;-77
2023/04/07 01:26:42;;;;;;;117.63;55.22;;;7.10;99.90;;;;;;4974777;28;20091;-77
2023/04/07 01:29:35;;;;;;;122.68;53.63;;;7.10;99.90;;;;;;4975250;28;20053;-77
2023/04/07 01:32:05;;;;;;;169.90;59.43;;;7.10;99.90;;;;;;4975120;28;20045;-77
2023/04/07 01:34:31;;;;;;;142.02;56.08;;;7.00;99.90;;;;;;4973849;28;20097;-77
2023/04/07 01:37:00;;;;;;;154.43;58.30;;;7.10;99.90;;;;;;4973479;28;20049;-77
2023/04/07 01:39:27;;;;;;;108.22;55.15;;;7.10;99.90;;;;;;4973431;28;20078;-77
2023/04/07 01:41:54;;;;;;;110.60;54.13;;;7.10;99.90;;;;;;4978255;28;20039;-77
2023/04/07 01:44:21;;;;;;;116.93;54.42;;;7.10;99.90;;;;;;4977573;28;20117;-77
2023/04/07 01:46:49;;;;;;;129.30;54.97;;;7.10;99.90;;;;;;4994397;28;20034;-77
2023/04/07 01:49:16;;;;;;;122.18;54.13;;;7.10;99.90;;;;;;4979136;28;20443;-77
2023/04/07 01:51:43;;;;;;;115.70;52.47;;;7.10;99.90;;;;;;4977633;28;20184;-77
2023/04/07 01:54:09;;;;;;;108.43;52.45;;;7.10;99.90;;;;;;4982879;28;20125;-77
2023/04/07 01:56:36;;;;;;;133.30;54.70;;;7.10;99.90;;;;;;4992346;28;20460;-77
2023/04/07 01:59:02;;;;;;;100.75;52.30;;;7.10;99.90;;;;;;4985939;28;20046;-77
2023/04/07 02:01:28;;;;;;;95.65;51.40;;;7.10;99.90;;;;;;4976786;28;20432;-77
2023/04/07 02:04:03;;;;;;;141.85;55.72;;;7.20;99.90;;;;;;4975287;28;20042;-77
2023/04/07 02:06:34;;;;;;;121.70;54.03;;;7.20;99.90;;;;;;4969317;28;20038;-77
2023/04/07 02:09:06;;;;;;;102.63;52.63;;;7.20;99.90;;;;;;4977709;28;20042;-77
2023/04/07 02:11:34;;;;;;;134.40;55.35;;;7.20;99.90;;;;;;4978491;28;20065;-77
2023/04/07 02:14:06;;;;;;;127.25;54.00;;;7.20;99.90;;;;;;4969235;28;20054;-77
2023/04/07 02:16:32;;;;;;;128.63;55.22;;;7.20;99.90;;;;;;4978565;28;20038;-77
2023/04/07 02:18:58;;;;;;;121.50;54.35;;;7.20;99.90;;;;;;4977294;28;20574;-77
2023/04/07 02:21:27;;;;;;;111.72;54.65;;;7.20;99.90;;;;;;4977840;28;20037;-77
2023/04/07 02:23:53;;;;;;;175.52;59.55;;;7.20;99.90;;;;;;4977223;28;20039;-77
2023/04/07 02:26:18;;;;;;;129.18;55.55;;;7.20;99.90;;;;;;4978039;28;20104;-77
2023/04/07 02:28:45;;;;;;;125.55;55.20;;;7.20;99.90;;;;;;4969855;28;20035;-77
2023/04/07 02:31:12;;;;;;;146.00;55.35;;;7.10;99.90;;;;;;4974338;28;20046;-77
2023/04/07 02:33:38;;;;;;;124.00;54.53;;;7.20;99.90;;;;;;4977287;28;20053;-77
2023/04/07 02:36:05;;;;;;;155.00;56.65;;;7.20;99.90;;;;;;4989708;28;20042;-77
2023/04/07 02:38:31;;;;;;;143.95;56.67;;;7.20;99.90;;;;;;4978245;28;20523;-77
2023/04/07 02:40:58;;;;;;;136.93;55.75;;;7.20;99.90;;;;;;4977740;28;20043;-77
2023/04/07 02:43:24;;;;;;;170.40;59.05;;;7.30;99.90;;;;;;4976344;28;20030;-77
2023/04/07 02:45:50;;;;;;;138.25;55.72;;;7.20;99.90;;;;;;4977090;28;20030;-77
2023/04/07 02:48:16;;;;;;;136.07;54.33;;;7.20;99.90;;;;;;4985735;28;20096;-77
2023/04/07 02:50:42;;;;;;;128.50;54.50;;;7.30;99.90;;;;;;4976795;28;20050;-77
2023/04/07 02:53:10;;;;;;;123.85;53.25;;;7.30;99.90;;;;;;4975750;28;20052;-77
2023/04/07 02:55:36;;;;;;;140.23;53.90;;;7.30;99.90;;;;;;4977460;28;20092;-77
2023/04/07 02:58:04;;;;;;;144.57;54.85;;;7.30;99.90;;;;;;4975275;28;20405;-77
2023/04/07 03:00:30;;;;;;;178.27;58.88;;;7.30;99.90;;;;;;4993969;28;20081;-77
2023/04/07 03:02:56;;;;;;;150.27;57.28;;;7.30;99.90;;;;;;4976210;28;20128;-77
2023/04/07 03:05:22;;;;;;;156.90;57.95;;;7.30;99.90;;;;;;4976992;28;20381;-77
2023/04/07 03:07:50;;;;;;;180.98;59.95;;;7.30;99.90;;;;;;4977012;28;20070;-77
2023/04/07 03:10:16;;;;;;;194.38;58.90;;;7.30;99.90;;;;;;4976628;28;20046;-76
2023/04/07 03:12:42;;;;;;;179.27;60.53;;;7.30;99.90;;;;;;4978371;28;20058;-76
2023/04/07 03:15:08;;;;;;;140.68;55.88;;;7.30;99.90;;;;;;4986877;28;20117;-76
2023/04/07 03:17:34;;;;;;;155.68;56.05;;;7.30;99.90;;;;;;4981140;28;20093;-76
2023/04/07 03:20:00;;;;;;;146.70;56.25;;;7.30;99.90;;;;;;4990320;28;20532;-77
2023/04/07 03:22:26;;;;;;;155.90;58.00;;;7.30;99.90;;;;;;4994306;28;20065;-77
2023/04/07 03:24:51;;;;;;;235.80;63.72;;;7.30;99.90;;;;;;4977570;28;20092;-76
2023/04/07 03:27:19;;;;;;;150.77;55.28;;;7.40;99.90;;;;;;4978190;28;20042;-77
2023/04/07 03:29:45;;;;;;;181.85;59.65;;;7.30;99.90;;;;;;4993574;28;20120;-77
2023/04/07 03:32:11;;;;;;;156.20;55.83;;;7.30;99.90;;;;;;4998081;28;20049;-77
2023/04/07 03:34:37;;;;;;;189.88;59.88;;;7.40;99.90;;;;;;4970547;28;20401;-77
2023/04/07 03:37:03;;;;;;;138.20;55.20;;;7.30;99.90;;;;;;4975091;28;20049;-77
2023/04/07 03:39:29;;;;;;;155.43;55.90;;;7.30;99.90;;;;;;4994253;28;20097;-77
2023/04/07 03:41:55;;;;;;;161.55;54.97;;;7.30;99.90;;;;;;4977397;28;20489;-77
2023/04/07 03:44:20;;;;;;;110.28;51.35;;;7.30;99.90;;;;;;4973469;28;20492;-77
2023/04/07 03:46:47;;;;;;;106.35;52.80;;;7.30;99.90;;;;;;4976769;28;20045;-77
2023/04/07 03:49:15;;;;;;;165.93;56.53;;;7.40;99.90;;;;;;4976834;28;20038;-77
2023/04/07 03:51:41;;;;;;;119.85;50.83;;;7.30;99.90;;;;;;4980193;28;20042;-77
2023/04/07 03:54:07;;;;;;;165.80;56.40;;;7.40;99.90;;;;;;4975536;28;20042;-77
2023/04/07 03:56:32;;;;;;;115.32;50.92;;;7.30;99.90;;;;;;4992646;28;20045;-77
2023/04/07 03:58:58;;;;;;;128.00;52.70;;;7.30;99.90;;;;;;4977075;28;20515;-77
2023/04/07 04:01:24;;;;;;;127.30;51.60;;;7.30;99.90;;;;;;5002895;28;20046;-77
2023/04/07 04:03:53;;;;;;;171.32;56.03;;;7.30;99.90;;;;;;4976848;28;20031;-77
2023/04/07 04:06:19;;;;;;;175.38;56.90;;;7.40;99.90;;;;;;4976396;28;20502;-77
2023/04/07 04:08:44;;;;;;;113.07;51.08;;;7.30;99.90;;;;;;4976472;28;20125;-77
2023/04/07 04:11:10;;;;;;;118.30;51.97;;;7.30;99.90;;;;;;4989141;28;20050;-77
2023/04/07 04:13:36;;;;;;;173.38;55.95;;;7.40;99.90;;;;;;4970564;28;20034;-77
2023/04/07 04:16:02;;;;;;;115.45;52.05;;;7.40;99.90;;;;;;4992358;28;20069;-77
2023/04/07 04:18:30;;;;;;;116.38;51.50;;;7.30;99.90;;;;;;4976896;28;20054;-76
2023/04/07 04:20:55;;;;;;;128.90;51.42;;;7.40;99.90;;;;;;4992581;28;20073;-77
2023/04/07 04:23:21;;;;;;;120.20;50.17;;;7.30;99.90;;;;;;4975332;28;20050;-77
2023/04/07 04:25:47;;;;;;;110.07;46.42;;;7.40;99.90;;;;;;4991199;28;20113;-76
2023/04/07 04:28:12;;;;;;;128.52;51.67;;;7.40;99.90;;;;;;4976230;28;20116;-77
2023/04/07 04:30:38;;;;;;;122.00;47.17;;;7.30;99.90;;;;;;4975829;28;20438;-77
2023/04/07 04:33:06;;;;;;;105.05;46.72;;;7.30;99.90;;;;;;4991202;28;20110;-77
2023/04/07 04:35:34;;;;;;;106.40;48.20;;;7.40;99.90;;;;;;4972308;28;20130;-77
2023/04/07 04:38:00;;;;;;;104.88;47.60;;;7.40;99.90;;;;;;4980505;28;20423;-77
2023/04/07 04:40:26;;;;;;;100.68;47.22;;;7.40;99.90;;;;;;4986485;28;20030;-77
2023/04/07 04:42:51;;;;;;;94.80;46.60;;;7.40;99.90;;;;;;4974613;28;20045;-77
2023/04/07 04:45:17;;;;;;;103.45;49.03;;;7.40;99.90;;;;;;4961413;28;20153;-77
2023/04/07 04:47:43;;;;;;;115.38;50.63;;;7.40;99.90;;;;;;4957100;28;20504;-76
2023/04/07 04:50:09;;;;;;;94.20;49.15;;;7.40;99.90;;;;;;4957379;28;20493;-77
2023/04/07 04:52:35;;;;;;;107.70;46.42;;;7.40;99.90;;;;;;4983313;28;20038;-76
2023/04/07 04:55:03;;;;;;;119.88;50.17;;;7.40;99.90;;;;;;4976510;28;20409;-77
2023/04/07 04:57:34;;;;;;;87.55;44.22;;;7.40;99.90;;;;;;4976830;28;20052;-77
2023/04/07 05:00:01;;;;;;;145.00;64.20;;;7.30;99.90;;;;;;4992046;28;20084;-76
2023/04/07 05:02:27;;;;;;;124.50;51.58;;;7.30;99.90;;;;;;4986856;28;20034;-77
2023/04/07 05:04:52;;;;;;;125.22;52.80;;;7.30;99.90;;;;;;4971388;28;20042;-77
2023/04/07 05:07:18;;;;;;;137.82;53.22;;;7.30;99.90;;;;;;4975830;28;20038;-77
2023/04/07 05:09:44;;;;;;;136.93;52.33;;;7.30;99.90;;;;;;4992340;28;20042;-76
2023/04/07 05:12:09;;;;;;;135.00;50.97;;;7.40;99.90;;;;;;4974987;28;20587;-76
2023/04/07 05:14:35;;;;;;;163.88;52.22;;;7.30;99.90;;;;;;4975264;28;20503;-77
2023/04/07 05:17:01;;;;;;;191.02;55.60;;;7.30;99.90;;;;;;4966916;28;20046;-76
2023/04/07 05:19:28;;;;;;;108.13;47.38;;;7.30;99.90;;;;;;4976049;28;20038;-76
2023/04/07 05:21:56;;;;;;;130.80;49.88;;;7.30;99.90;;;;;;4974854;28;20225;-77
2023/04/07 05:24:22;;;;;;;154.93;53.95;;;7.30;99.90;;;;;;4990023;28;20045;-76
2023/04/07 05:26:48;;;;;;;188.20;58.55;;;7.30;99.90;;;;;;5007866;28;20034;-76
2023/04/07 05:29:13;;;;;;;130.07;48.40;;;7.30;99.90;;;;;;4975314;28;20038;-77
2023/04/07 05:31:40;;;;;;;264.48;66.68;;;7.40;99.90;;;;;;5020980;23;20036;-72
2023/04/07 05:34:05;;;;;;;137.38;50.90;;;7.40;99.90;;;;;;5062821;28;20043;-72
2023/04/07 05:36:32;;;;;;;118.68;44.30;;;7.30;99.90;;;;;;5054088;28;20409;-72
2023/04/07 05:38:58;;;;;;;114.95;49.17;;;7.30;99.90;;;;;;5037184;28;20445;-72
2023/04/07 05:41:23;;;;;;;143.27;49.70;;;7.30;99.90;;;;;;5048855;28;20037;-72
2023/04/07 05:43:49;;;;;;;156.57;55.15;;;7.40;99.90;;;;;;5067451;28;20040;-72
2023/04/07 05:46:15;;;;;;;130.23;49.50;;;7.30;99.90;;;;;;5080319;28;20122;-72
2023/04/07 05:48:40;;;;;;;170.65;50.10;;;7.30;99.90;;;;;;5084455;28;20576;-72
2023/04/07 05:51:06;;;;;;;201.05;67.90;;;7.30;99.90;;;;;;5081678;28;20546;-72
2023/04/07 05:53:31;;;;;;;137.60;60.80;;;7.40;99.90;;;;;;5071718;28;20079;-72
2023/04/07 05:55:57;;;;;;;117.15;59.22;;;7.40;99.90;;;;;;5078227;28;20048;-72
2023/04/07 05:58:22;;;;;;;164.35;65.70;;;7.40;99.90;;;;;;5089944;28;20075;-72
2023/04/07 06:00:49;;;;;;;144.10;63.13;;;7.30;99.90;;;;;;5080217;28;20123;-72
2023/04/07 06:03:14;;;;;;;99.78;51.28;;;7.40;99.90;;;;;;5062515;28;20044;-72
2023/04/07 06:05:42;;;;;;;133.15;56.10;;;7.40;99.90;;;;;;5068649;28;20039;-71
2023/04/07 06:08:09;;;;;;;117.32;61.58;;;7.40;99.90;;;;;;5077403;28;20044;-73
2023/04/07 06:10:34;;;;;;;159.90;67.43;;;7.40;99.90;;;;;;5084488;28;20501;-72
2023/04/07 06:13:00;;;;;;;136.95;65.72;;;7.30;99.90;;;;;;5074224;28;20082;-72
2023/04/07 06:15:25;;;;;;;142.45;52.85;;;7.30;99.90;;;;;;5061552;28;20048;-72
2023/04/07 06:17:51;;;;;;;133.10;52.40;;;7.40;99.90;;;;;;5066775;28;20545;-72
2023/04/07 06:20:17;;;;;;;87.72;46.92;;;7.40;99.90;;;;;;5076941;28;20067;-72
2023/04/07 06:22:42;;;;;;;130.07;60.58;;;7.40;99.90;;;;;;5071651;28;20048;-72
2023/04/07 06:25:08;;;;;;;174.00;79.97;;;7.40;99.90;;;;;;5084996;28;20043;-72
2023/04/07 06:27:34;;;;;;;216.80;74.25;;;7.40;99.90;;;;;;5083069;28;20036;-72
2023/04/07 06:30:00;;;;;;;162.30;61.10;;;7.40;99.90;;;;;;5084776;28;20120;-72
2023/04/07 06:32:27;;;;;;;237.40;72.85;;;7.40;99.90;;;;;;5093040;28;20127;-72
2023/04/07 06:34:52;;;;;;;141.75;60.42;;;7.40;99.90;;;;;;5093452;28;20051;-72
2023/04/07 06:37:18;;;;;;;105.95;48.10;;;7.40;99.90;;;;;;5076318;28;20040;-72
2023/04/07 06:39:44;;;;;;;113.93;54.17;;;7.40;99.90;;;;;;5070203;28;20121;-72
2023/04/07 06:42:09;;;;;;;59.63;38.05;;;7.50;99.90;;;;;;5078518;28;20100;-72
2023/04/07 06:44:35;;;;;;;78.18;39.03;;;7.50;99.90;;;;;;5078116;28;20121;-72
2023/04/07 06:47:00;;;;;;;74.60;41.80;;;7.50;99.90;;;;;;5079560;28;20485;-73
2023/04/07 06:49:26;;;;;;;72.80;42.33;;;7.50;99.90;;;;;;5074344;28;20496;-73
2023/04/07 06:51:51;;;;;;;65.30;42.60;;;7.40;99.90;;;;;;5052974;28;20559;-73
2023/04/07 06:54:17;;;;;;;111.88;48.13;;;7.50;99.90;;;;;;5072350;28;20044;-72
2023/04/07 06:56:43;;;;;;;101.20;47.45;;;7.40;99.90;;;;;;5076392;28;20499;-73
2023/04/07 06:59:09;;;;;;;96.93;58.17;;;7.40;99.90;;;;;;5072787;28;20566;-72
2023/04/07 07:01:36;;;;;;;124.80;71.78;;;7.50;99.90;;;;;;5067179;28;20471;-72
2023/04/07 07:04:02;;;;;;;71.25;41.45;;;7.50;99.90;;;;;;5079021;28;20435;-73
2023/04/07 07:06:27;;;;;;;73.05;45.70;;;7.50;99.90;;;;;;5046387;28;20039;-72
2023/04/07 07:08:53;;;;;;;65.55;40.45;;;7.50;99.90;;;;;;5064157;28;20398;-74
2023/04/07 07:11:19;;;;;;;121.05;47.90;;;7.50;99.90;;;;;;5072116;28;20044;-72
2023/04/07 07:13:45;;;;;;;115.38;48.75;;;7.50;99.90;;;;;;5072704;28;20283;-72
2023/04/07 07:16:11;;;;;;;62.30;40.05;;;7.50;99.90;;;;;;5071397;28;20090;-72
2023/04/07 07:18:37;;;;;;;74.50;41.92;;;7.60;99.90;;;;;;5070796;28;20044;-72
2023/04/07 07:21:03;;;;;;;68.75;42.55;;;7.50;99.90;;;;;;5072118;28;20097;-72
2023/04/07 07:23:28;;;;;;;62.50;45.05;;;7.60;99.90;;;;;;5055504;28;20036;-72
2023/04/07 07:25:54;;;;;;;86.82;48.67;;;7.60;99.90;;;;;;5071424;28;20068;-72
2023/04/07 07:28:20;;;;;;;76.43;47.75;;;7.60;99.90;;;;;;5062002;28;20478;-75
2023/04/07 07:30:46;;;;;;;74.53;46.28;;;7.60;99.90;;;;;;5072465;28;20037;-73
2023/04/07 07:33:12;;;;;;;75.95;46.05;;;7.70;99.90;;;;;;5072048;28;20386;-73
2023/04/07 07:35:38;;;;;;;68.18;43.42;;;7.70;99.90;;;;;;5067645;28;20036;-73
2023/04/07 07:38:03;;;;;;;65.05;41.88;;;7.70;99.90;;;;;;5071417;28;20044;-72
2023/04/07 07:40:29;;;;;;;68.30;42.58;;;7.70;99.90;;;;;;5072052;28;20077;-73
2023/04/07 07:42:54;;;;;;;54.53;38.22;;;7.70;99.90;;;;;;5067937;28;20123;-73
2023/04/07 07:45:20;;;;;;;77.65;43.33;;;7.70;99.90;;;;;;5057465;28;20066;-73
2023/04/07 07:47:45;;;;;;;67.85;41.72;;;7.70;99.90;;;;;;5058518;28;20438;-73
2023/04/07 07:50:11;;;;;;;60.50;39.90;;;7.80;99.90;;;;;;5052135;28;20470;-73
2023/04/07 07:52:36;;;;;;;55.28;38.10;;;7.90;99.90;;;;;;5051508;28;20048;-73
2023/04/07 07:55:02;;;;;;;46.05;35.45;;;7.90;99.90;;;;;;5051620;28;20041;-73
2023/04/07 07:57:30;;;;;;;65.13;39.13;;;8.00;99.90;;;;;;5044598;28;20083;-74
2023/04/07 07:59:55;;;;;;;50.10;36.40;;;8.00;99.90;;;;;;5063239;28;20118;-74
2023/04/07 08:02:21;;;;;;;46.85;35.78;;;8.10;99.90;;;;;;5071165;28;20482;-74
2023/04/07 08:04:46;;;;;;;50.03;34.92;;;8.10;99.90;;;;;;5071485;28;20123;-74
2023/04/07 08:07:12;;;;;;;44.10;33.95;;;8.20;99.90;;;;;;5071633;28;20124;-74
2023/04/07 08:09:37;;;;;;;37.60;32.08;;;8.20;99.90;;;;;;5071387;28;20040;-74
2023/04/07 08:12:03;;;;;;;41.38;34.60;;;8.40;99.90;;;;;;5061621;28;20555;-74
2023/04/07 08:14:29;;;;;;;52.65;37.17;;;8.50;99.90;;;;;;5059309;28;20099;-74
2023/04/07 08:16:55;;;;;;;43.92;34.83;;;8.60;99.90;;;;;;5051265;28;20048;-74
2023/04/07 08:19:20;;;;;;;34.70;29.83;;;8.70;99.90;;;;;;5051122;28;20048;-74
2023/04/07 08:21:46;;;;;;;28.73;25.65;;;8.90;99.90;;;;;;5053964;28;20037;-74
2023/04/07 08:24:11;;;;;;;26.88;24.13;;;9.00;99.90;;;;;;5059482;28;20045;-74
2023/04/07 08:26:37;;;;;;;25.58;23.10;;;9.00;99.90;;;;;;5065286;28;20028;-74
2023/04/07 08:29:03;;;;;;;24.30;21.80;;;9.10;99.90;;;;;;5074436;28;20101;-75
2023/04/07 08:31:28;;;;;;;23.98;21.52;;;9.10;99.90;;;;;;5070010;28;20043;-74
2023/04/07 08:33:56;;;;;;;21.70;19.40;;;9.10;99.90;;;;;;5059648;28;20040;-74
2023/04/07 08:36:23;;;;;;;21.17;19.02;;;9.00;99.90;;;;;;5080943;28;20051;-72
2023/04/07 08:38:48;;;;;;;20.50;18.42;;;9.00;99.90;;;;;;5065593;28;20040;-73
2023/04/07 08:41:20;;;;;;;20.10;18.08;;;9.00;99.90;;;;;;5077354;28;20046;-74
2023/04/07 08:43:48;;;;;;;21.27;18.97;;;8.90;99.90;;;;;;5070269;28;20116;-73
2023/04/07 08:46:15;;;;;;;20.15;18.15;;;8.90;99.90;;;;;;5059192;28;20040;-74
2023/04/07 08:48:43;;;;;;;18.15;16.35;;;8.90;99.90;;;;;;5050936;28;20048;-74
2023/04/07 08:51:12;;;;;;;20.63;17.58;;;9.00;99.90;;;;;;5061733;28;20119;-72
2023/04/07 08:53:50;;;;;;;18.27;16.35;;;9.00;99.90;;;;;;5074249;28;20133;-72
2023/04/07 08:56:16;;;;;;;18.30;16.70;;;9.00;99.90;;;;;;5078738;28;20090;-72
2023/04/07 08:58:46;;;;;;;25.23;22.67;;;9.10;99.90;;;;;;5070529;28;20330;-72
2023/04/07 09:01:13;;;;;;;27.00;24.40;;;9.00;99.90;;;;;;5071255;28;20129;-72
2023/04/07 09:03:39;;;;;;;27.98;25.38;;;9.00;99.90;;;;;;5083513;28;20036;-73
2023/04/07 09:06:05;;;;;;;27.38;24.88;;;9.00;99.90;;;;;;5078752;28;20048;-72
2023/04/07 09:08:30;;;;;;;30.23;27.42;;;9.00;99.90;;;;;;5063834;28;20447;-72
2023/04/07 09:10:57;;;;;;;29.58;26.85;;;9.00;99.90;;;;;;5081374;28;20036;-72
2023/04/07 09:13:26;;;;;;;30.98;28.10;;;9.10;99.90;;;;;;5082202;28;20047;-72
2023/04/07 09:15:51;;;;;;;25.45;23.15;;;9.10;99.90;;;;;;5088034;28;20447;-73
2023/04/07 09:18:17;;;;;;;31.05;28.20;;;9.30;99.90;;;;;;5061678;28;20120;-72
2023/04/07 09:21:04;;;;;;;32.60;29.48;;;9.40;99.90;;;;;;5068113;28;20032;-72
2023/04/07 09:23:38;;;;;;;29.17;26.58;;;9.60;99.90;;;;;;5062761;28;20032;-73
2023/04/07 09:26:21;;;;;;;33.55;30.40;;;9.70;99.90;;;;;;5070257;28;20123;-73
2023/04/07 09:28:57;;;;;;;27.95;25.55;;;9.70;99.90;;;;;;5070389;28;20055;-73
2023/04/07 09:31:25;;;;;;;28.63;25.98;;;9.70;99.90;;;;;;5068160;28;20033;-72
2023/04/07 09:33:51;;;;;;;32.40;29.48;;;9.70;99.90;;;;;;5064077;28;20078;-73
2023/04/07 09:36:18;;;;;;;27.92;25.38;;;9.80;99.90;;;;;;5070387;28;20118;-72
2023/04/07 09:38:44;;;;;;;31.83;28.92;;;9.80;99.90;;;;;;5076218;28;20405;-73
2023/04/07 09:41:15;;;;;;;33.67;30.70;;;9.80;99.90;;;;;;5076952;28;20079;-73
2023/04/07 09:43:45;;;;;;;27.08;24.67;;;9.80;99.90;;;;;;5084114;28;20485;-72
2023/04/07 09:46:12;;;;;;;27.67;25.23;;;9.90;99.90;;;;;;5061539;28;20119;-72
2023/04/07 09:48:38;;;;;;;20.02;18.33;;;9.90;99.90;;;;;;5070793;28;20040;-72
2023/04/07 09:51:12;;;;;;;22.58;20.58;;;9.90;99.90;;;;;;5066833;28;20036;-73
2023/04/07 09:53:49;;;;;;;19.25;17.50;;;9.80;99.90;;;;;;5076224;28;20122;-72
2023/04/07 09:56:21;;;;;;;27.88;25.38;;;9.80;99.90;;;;;;5068905;28;20398;-73
2023/04/07 09:58:50;;;;;;;26.95;24.65;;;9.80;99.90;;;;;;5057647;28;20043;-73
2023/04/07 10:01:16;;;;;;;20.92;19.13;;;9.90;99.90;;;;;;5075159;28;20044;-73
2023/04/07 10:03:42;;;;;;;19.20;17.52;;;10.10;99.90;;;;;;5074224;28;20145;-73
2023/04/07 10:06:08;;;;;;;19.92;18.17;;;10.00;99.90;;;;;;5083634;28;20040;-72
2023/04/07 10:08:36;;;;;;;20.40;18.67;;;10.00;99.90;;;;;;5073994;28;20486;-74
2023/04/07 10:11:03;;;;;;;21.13;19.30;;;10.00;99.90;;;;;;5081406;28;20379;-73
2023/04/07 10:13:30;;;;;;;19.20;17.60;;;10.00;99.90;;;;;;5078795;28;20144;-74
2023/04/07 10:15:57;;;;;;;17.83;16.33;;;10.00;99.90;;;;;;5067652;28;20403;-74
2023/04/07 10:18:28;;;;;;;14.38;13.15;;;10.10;99.90;;;;;;5073538;28;20033;-73
2023/04/07 10:20:55;;;;;;;15.00;13.70;;;10.10;99.90;;;;;;5069443;28;20040;-73
2023/04/07 10:23:26;;;;;;;15.73;14.25;;;10.20;99.90;;;;;;5057804;28;20033;-73
2023/04/07 10:25:55;;;;;;;17.63;16.13;;;10.40;99.90;;;;;;5071724;28;20102;-74
2023/04/07 10:28:23;;;;;;;13.90;12.70;;;10.80;99.90;;;;;;5074245;28;20036;-73
2023/04/07 10:30:50;;;;;;;12.00;11.00;;;11.20;99.90;;;;;;5073174;28;20047;-75
2023/04/07 10:33:17;;;;;;;13.25;12.15;;;11.30;99.90;;;;;;5072955;28;20032;-74
2023/04/07 10:36:03;;;;;;;12.32;11.32;;;11.30;99.90;;;;;;5072445;28;20036;-73
2023/04/07 10:38:30;;;;;;;13.43;12.32;;;11.30;99.90;;;;;;5061169;28;20108;-74
2023/04/07 10:40:56;;;;;;;12.93;11.82;;;11.30;99.90;;;;;;5052883;28;20040;-74
2023/04/07 10:43:39;;;;;;;12.27;11.27;;;11.30;99.90;;;;;;5072258;28;20036;-73
2023/04/07 10:46:05;;;;;;;16.23;14.82;;;11.30;99.90;;;;;;5070978;28;20044;-74
2023/04/07 10:48:32;;;;;;;14.85;13.65;;;10.90;99.90;;;;;;5063278;28;20111;-73
2023/04/07 10:51:03;;;;;;;13.70;12.60;;;10.80;99.90;;;;;;5071953;28;20433;-76
2023/04/07 10:53:35;;;;;;;12.95;11.90;;;10.80;99.90;;;;;;5069607;28;20150;-73
2023/04/07 10:56:01;;;;;;;15.20;14.00;;;10.80;99.90;;;;;;5064462;28;20549;-74
2023/04/07 10:58:28;;;;;;;14.95;13.77;;;10.70;99.90;;;;;;5063298;28;20413;-73
2023/04/07 11:01:02;;;;;;;15.25;14.05;;;10.70;99.90;;;;;;5072354;28;20041;-74
2023/04/07 11:03:30;;;;;;;16.50;15.20;;;10.70;99.90;;;;;;5076731;28;20174;-74
2023/04/07 11:06:12;;;;;;;15.68;14.38;;;10.70;99.90;;;;;;5081144;28;20402;-74
2023/04/07 11:08:46;;;;;;;15.80;14.53;;;10.80;99.90;;;;;;5074451;28;20421;-74
2023/04/07 11:11:14;;;;;;;15.43;14.13;;;10.90;99.90;;;;;;5081935;28;20068;-74
2023/04/07 11:13:43;;;;;;;17.25;15.85;;;11.10;99.90;;;;;;5080811;28;20050;-74
2023/04/07 11:16:10;;;;;;;13.98;12.88;;;11.30;99.90;;;;;;5091533;28;20062;-74
2023/04/07 11:18:36;;;;;;;13.80;12.68;;;11.60;99.90;;;;;;5078360;28;20040;-74
2023/04/07 11:21:04;;;;;;;12.32;11.32;;;11.60;99.90;;;;;;5080381;28;20043;-74
2023/04/07 11:23:36;;;;;;;13.30;12.30;;;11.60;99.90;;;;;;5074693;28;20486;-75
2023/04/07 11:26:02;;;;;;;13.00;12.00;;;11.60;99.90;;;;;;5053471;28;20039;-74
2023/04/07 11:28:29;;;;;;;12.68;11.57;;;11.40;99.90;;;;;;5075544;28;20036;-75
2023/04/07 11:30:57;;;;;;;13.77;12.68;;;11.20;99.90;;;;;;5062083;28;20041;-74
2023/04/07 11:33:26;;;;;;;14.63;13.45;;;11.20;99.90;;;;;;5075198;28;20033;-73
2023/04/07 11:35:56;;;;;;;12.45;11.45;;;11.20;99.90;;;;;;5075547;28;20387;-73
2023/04/07 11:38:23;;;;;;;13.68;12.57;;;11.40;99.90;;;;;;5069182;28;20542;-74
2023/04/07 11:40:49;;;;;;;14.73;13.52;;;11.20;99.90;;;;;;5069330;28;20044;-75
2023/04/07 11:43:20;;;;;;;14.13;13.02;;;11.10;99.90;;;;;;5071348;28;20044;-73
2023/04/07 11:46:01;;;;;;;16.00;14.73;;;11.00;99.90;;;;;;5060691;28;20028;-74
2023/04/07 11:48:32;;;;;;;16.15;14.85;;;11.00;99.90;;;;;;5064186;28;20028;-74
2023/04/07 11:50:58;;;;;;;14.35;13.15;;;10.80;99.90;;;;;;5074662;28;20487;-74
2023/04/07 11:53:26;;;;;;;14.68;13.57;;;10.90;99.90;;;;;;5071238;28;20063;-75
2023/04/07 11:55:59;;;;;;;13.20;12.20;;;10.90;99.90;;;;;;5070579;28;20116;-74
2023/04/07 11:58:25;;;;;;;13.15;12.05;;;11.00;99.90;;;;;;5070392;28;20071;-73
2023/04/07 12:00:56;;;;;;;10.48;9.57;;;11.10;99.90;;;;;;5071107;28;20040;-74
2023/04/07 12:03:21;;;;;;;11.57;10.68;;;11.30;99.90;;;;;;5068749;28;20546;-74
2023/04/07 12:05:47;;;;;;;10.63;9.68;;;11.30;99.90;;;;;;5069937;28;20116;-74
2023/04/07 12:08:14;;;;;;;9.77;8.98;;;11.40;99.90;;;;;;5070798;28;20555;-73
2023/04/07 12:10:40;;;;;;;11.15;10.25;;;11.50;99.90;;;;;;5067000;28;20037;-73
2023/04/07 12:13:07;;;;;;;9.88;9.07;;;11.60;99.90;;;;;;5051393;28;20407;-73
2023/04/07 12:15:33;;;;;;;10.88;9.88;;;11.70;99.90;;;;;;5034485;28;20056;-73
2023/04/07 12:17:58;;;;;;;11.10;10.10;;;11.80;99.90;;;;;;5051223;28;20040;-74
2023/04/07 12:20:24;;;;;;;10.85;9.95;;;11.80;99.90;;;;;;5062656;28;20040;-73
2023/04/07 12:22:50;;;;;;;12.85;11.85;;;11.80;99.90;;;;;;5070724;28;20089;-73
2023/04/07 12:25:15;;;;;;;12.20;11.07;;;11.70;99.90;;;;;;5070368;28;20182;-73
2023/04/07 12:27:41;;;;;;;11.38;10.38;;;11.70;99.90;;;;;;5070665;28;20550;-73
2023/04/07 12:30:07;;;;;;;11.07;10.07;;;11.70;99.90;;;;;;5070776;28;20044;-73
2023/04/07 12:32:33;;;;;;;10.40;9.60;;;11.60;99.90;;;;;;5070152;28;20167;-73